GBSVG EGJJ-EGJB

Flight info

Callsign GBSVG
Flight time 0h 11m
Altitude 3500
Route GUR
Aircraft SR22/L-SDGRY/S

Departure

Time 2026-04-24 20:13
Airport Jersey Airport (EGJJ)

Arrival

Time 2026-04-24 20:24
Airport Guernsey Airport (EGJB)
Time Latitude Longitude Altitude Speed Heading
2026-04-24 20:03 49.20360 -2.19299 276 ft 0 kts 176°
2026-04-24 20:04 49.20361 -2.19299 276 ft 0 kts 176°
2026-04-24 20:07 49.20362 -2.19299 276 ft 0 kts 176°
2026-04-24 20:10 49.20359 -2.19297 276 ft 3 kts 153°
2026-04-24 20:10 49.20365 -2.19240 276 ft 8 kts 47°
2026-04-24 20:10 49.20410 -2.19264 276 ft 14 kts 259°
2026-04-24 20:10 49.20406 -2.19455 276 ft 22 kts 287°
2026-04-24 20:11 49.20445 -2.19708 275 ft 22 kts 265°
2026-04-24 20:11 49.20437 -2.19894 275 ft 7 kts 291°
2026-04-24 20:11 49.20502 -2.19922 275 ft 13 kts 354°
2026-04-24 20:11 49.20523 -2.19978 275 ft 11 kts 244°
2026-04-24 20:12 49.20556 -2.20087 275 ft 11 kts 354°
2026-04-24 20:12 49.20658 -2.20103 275 ft 18 kts 353°
2026-04-24 20:12 49.20756 -2.20014 275 ft 18 kts 69°
2026-04-24 20:12 49.20794 -2.19596 277 ft 65 kts 82°
2026-04-24 20:13 49.20866 -2.18798 380 ft 81 kts 81°
2026-04-24 20:13 49.20956 -2.17842 618 ft 95 kts 81°
2026-04-24 20:13 49.21047 -2.16818 953 ft 103 kts 79°
2026-04-24 20:13 49.21264 -2.15777 1328 ft 101 kts 66°
2026-04-24 20:14 49.21763 -2.14907 1516 ft 125 kts 32°
2026-04-24 20:14 49.22694 -2.15191 1559 ft 155 kts 325°
2026-04-24 20:14 49.23429 -2.16337 1859 ft 156 kts 311°
2026-04-24 20:14 49.24066 -2.17631 1779 ft 151 kts 309°
2026-04-24 20:15 49.24691 -2.18875 1670 ft 146 kts 310°
2026-04-24 20:15 49.25312 -2.20105 1551 ft 145 kts 310°
2026-04-24 20:15 49.25921 -2.21383 1622 ft 152 kts 309°
2026-04-24 20:15 49.26552 -2.22655 1797 ft 148 kts 311°
2026-04-24 20:16 49.27200 -2.23923 1867 ft 153 kts 311°
2026-04-24 20:16 49.27872 -2.25169 2001 ft 156 kts 312°
2026-04-24 20:16 49.28579 -2.26527 2016 ft 169 kts 308°
2026-04-24 20:16 49.29291 -2.28021 1980 ft 179 kts 307°
2026-04-24 20:17 49.30019 -2.29583 1987 ft 182 kts 307°
2026-04-24 20:17 49.31514 -2.32799 2003 ft 185 kts 308°
2026-04-24 20:17 49.32266 -2.34384 2049 ft 185 kts 307°
2026-04-24 20:18 49.32757 -2.35476 1954 ft 190 kts 306°
2026-04-24 20:18 49.33762 -2.37672 1974 ft 190 kts 308°
2026-04-24 20:18 49.34560 -2.39289 2012 ft 187 kts 305°
2026-04-24 20:18 49.35248 -2.40969 1999 ft 188 kts 301°
2026-04-24 20:19 49.35924 -2.42694 1989 ft 186 kts 303°
2026-04-24 20:19 49.36610 -2.44382 1970 ft 187 kts 304°
2026-04-24 20:19 49.37262 -2.46125 1939 ft 190 kts 294°
2026-04-24 20:19 49.37720 -2.48019 1938 ft 189 kts 289°
2026-04-24 20:20 49.38108 -2.49931 2008 ft 182 kts 286°
2026-04-24 20:20 49.38453 -2.51812 1965 ft 188 kts 285°
2026-04-24 20:20 49.38787 -2.53725 1985 ft 188 kts 284°
2026-04-24 20:20 49.39067 -2.55675 1999 ft 185 kts 281°
2026-04-24 20:21 49.39337 -2.57617 1968 ft 187 kts 283°
2026-04-24 20:21 49.39621 -2.59579 1963 ft 188 kts 280°
2026-04-24 20:21 49.39889 -2.61451 2031 ft 170 kts 283°
2026-04-24 20:21 49.40184 -2.63064 1911 ft 147 kts 288°
2026-04-24 20:22 49.40487 -2.64490 1793 ft 135 kts 288°
2026-04-24 20:22 49.40845 -2.65751 1811 ft 117 kts 307°
2026-04-24 20:22 49.41540 -2.66361 1786 ft 117 kts 359°
2026-04-24 20:22 49.42306 -2.66285 1700 ft 108 kts 33°
2026-04-24 20:23 49.42871 -2.65573 1505 ft 108 kts 57°
2026-04-24 20:23 49.43209 -2.64543 1293 ft 103 kts 73°
2026-04-24 20:23 49.43372 -2.63508 934 ft 102 kts 83°
2026-04-24 20:23 49.43432 -2.62426 555 ft 100 kts 89°
2026-04-24 20:24 49.43460 -2.61742 432 ft 85 kts 85°
2026-04-24 20:24 49.43480 -2.60745 320 ft 58 kts 90°
2026-04-24 20:24 49.43497 -2.60219 324 ft 42 kts 88°
2026-04-24 20:24 49.43502 -2.59911 330 ft 7 kts 89°
2026-04-24 20:25 49.43463 -2.59864 331 ft 10 kts 175°
2026-04-24 20:25 49.43398 -2.59859 332 ft 5 kts 177°
2026-04-24 20:25 49.43381 -2.59857 332 ft 0 kts 176°
2026-04-24 20:25 49.43354 -2.59866 331 ft 9 kts 213°
2026-04-24 20:26 49.43340 -2.60005 329 ft 18 kts 267°
2026-04-24 20:26 49.43336 -2.60189 326 ft 9 kts 266°
2026-04-24 20:26 49.43286 -2.60206 324 ft 1 kts 112°
2026-04-24 20:28 49.43286 -2.60207 324 ft 0 kts 109°
2026-04-24 20:32 49.43286 -2.60208 324 ft 0 kts 109°
2026-04-24 20:34 49.43287 -2.60208 324 ft 0 kts 110°
2026-04-24 20:35 49.43287 -2.60209 324 ft 0 kts 110°